sensor_id;sensor_type;location;lat;lon;timestamp;P1;durP1;ratioP1;P2;durP2;ratioP2
28724;SDS011;43472;48.980;9.646;2023-02-11T00:02:51;32.72;;;17.10;;
28724;SDS011;43472;48.980;9.646;2023-02-11T00:07:53;33.42;;;15.90;;
28724;SDS011;43472;48.980;9.646;2023-02-11T00:12:55;32.28;;;16.23;;
28724;SDS011;43472;48.980;9.646;2023-02-11T00:17:57;31.80;;;16.27;;
28724;SDS011;43472;48.980;9.646;2023-02-11T00:22:59;31.80;;;16.08;;
28724;SDS011;43472;48.980;9.646;2023-02-11T00:28:01;31.98;;;16.02;;
28724;SDS011;43472;48.980;9.646;2023-02-11T00:33:03;38.38;;;16.45;;
28724;SDS011;43472;48.980;9.646;2023-02-11T00:38:05;39.80;;;18.52;;
28724;SDS011;43472;48.980;9.646;2023-02-11T00:43:07;37.17;;;18.40;;
28724;SDS011;43472;48.980;9.646;2023-02-11T00:48:08;32.38;;;16.67;;
28724;SDS011;43472;48.980;9.646;2023-02-11T00:53:10;28.38;;;15.45;;
28724;SDS011;43472;48.980;9.646;2023-02-11T00:58:12;31.85;;;16.98;;
28724;SDS011;43472;48.980;9.646;2023-02-11T01:03:14;29.17;;;15.75;;
28724;SDS011;43472;48.980;9.646;2023-02-11T01:08:16;38.83;;;17.13;;
28724;SDS011;43472;48.980;9.646;2023-02-11T01:13:18;32.33;;;16.48;;
28724;SDS011;43472;48.980;9.646;2023-02-11T01:18:20;32.30;;;16.00;;
28724;SDS011;43472;48.980;9.646;2023-02-11T01:23:22;32.80;;;16.02;;
28724;SDS011;43472;48.980;9.646;2023-02-11T01:28:25;36.85;;;17.67;;
28724;SDS011;43472;48.980;9.646;2023-02-11T01:33:28;31.77;;;18.02;;
28724;SDS011;43472;48.980;9.646;2023-02-11T01:38:30;41.10;;;19.20;;
28724;SDS011;43472;48.980;9.646;2023-02-11T01:43:34;40.10;;;17.45;;
28724;SDS011;43472;48.980;9.646;2023-02-11T01:48:43;37.55;;;17.77;;
28724;SDS011;43472;48.980;9.646;2023-02-11T01:53:49;36.05;;;17.30;;
28724;SDS011;43472;48.980;9.646;2023-02-11T01:59:12;30.83;;;15.70;;
28724;SDS011;43472;48.980;9.646;2023-02-11T02:04:18;34.53;;;17.50;;
28724;SDS011;43472;48.980;9.646;2023-02-11T02:09:24;32.08;;;15.90;;
28724;SDS011;43472;48.980;9.646;2023-02-11T02:14:29;51.78;;;21.92;;
28724;SDS011;43472;48.980;9.646;2023-02-11T02:24:57;45.30;;;20.30;;
28724;SDS011;43472;48.980;9.646;2023-02-11T02:46:18;25.42;;;13.85;;
28724;SDS011;43472;48.980;9.646;2023-02-11T02:56:47;45.65;;;20.00;;
28724;SDS011;43472;48.980;9.646;2023-02-11T03:07:12;39.67;;;17.73;;
28724;SDS011;43472;48.980;9.646;2023-02-11T03:12:26;36.05;;;17.13;;
28724;SDS011;43472;48.980;9.646;2023-02-11T03:17:32;34.67;;;17.95;;
28724;SDS011;43472;48.980;9.646;2023-02-11T03:22:38;38.30;;;17.42;;
28724;SDS011;43472;48.980;9.646;2023-02-11T03:33:17;34.78;;;17.08;;
28724;SDS011;43472;48.980;9.646;2023-02-11T03:38:32;33.47;;;16.58;;
28724;SDS011;43472;48.980;9.646;2023-02-11T03:43:43;33.37;;;17.03;;
28724;SDS011;43472;48.980;9.646;2023-02-11T03:48:50;32.20;;;16.45;;
28724;SDS011;43472;48.980;9.646;2023-02-11T03:53:56;34.85;;;17.20;;
28724;SDS011;43472;48.980;9.646;2023-02-11T03:59:02;29.20;;;16.33;;
28724;SDS011;43472;48.980;9.646;2023-02-11T04:04:03;35.92;;;15.95;;
28724;SDS011;43472;48.980;9.646;2023-02-11T04:09:06;35.70;;;20.05;;
28724;SDS011;43472;48.980;9.646;2023-02-11T04:14:08;36.08;;;20.02;;
28724;SDS011;43472;48.980;9.646;2023-02-11T04:19:09;38.85;;;19.65;;
28724;SDS011;43472;48.980;9.646;2023-02-11T04:24:11;39.25;;;21.00;;
28724;SDS011;43472;48.980;9.646;2023-02-11T04:29:13;37.33;;;18.73;;
28724;SDS011;43472;48.980;9.646;2023-02-11T04:34:15;31.20;;;17.95;;
28724;SDS011;43472;48.980;9.646;2023-02-11T04:39:17;35.35;;;17.17;;
28724;SDS011;43472;48.980;9.646;2023-02-11T04:44:19;37.30;;;18.20;;
28724;SDS011;43472;48.980;9.646;2023-02-11T04:49:22;33.58;;;18.02;;
28724;SDS011;43472;48.980;9.646;2023-02-11T04:54:23;34.92;;;18.17;;
28724;SDS011;43472;48.980;9.646;2023-02-11T04:59:25;34.25;;;18.55;;
28724;SDS011;43472;48.980;9.646;2023-02-11T05:04:27;42.58;;;18.67;;
28724;SDS011;43472;48.980;9.646;2023-02-11T05:09:29;38.92;;;19.85;;
28724;SDS011;43472;48.980;9.646;2023-02-11T05:14:31;36.50;;;19.42;;
28724;SDS011;43472;48.980;9.646;2023-02-11T05:19:33;38.63;;;19.65;;
28724;SDS011;43472;48.980;9.646;2023-02-11T05:24:35;56.08;;;22.38;;
28724;SDS011;43472;48.980;9.646;2023-02-11T05:29:37;45.47;;;22.55;;
28724;SDS011;43472;48.980;9.646;2023-02-11T05:34:39;51.28;;;23.48;;
28724;SDS011;43472;48.980;9.646;2023-02-11T05:39:41;50.00;;;23.30;;
28724;SDS011;43472;48.980;9.646;2023-02-11T05:44:43;42.45;;;20.73;;
28724;SDS011;43472;48.980;9.646;2023-02-11T05:49:45;43.92;;;20.33;;
28724;SDS011;43472;48.980;9.646;2023-02-11T05:54:47;43.22;;;22.10;;
28724;SDS011;43472;48.980;9.646;2023-02-11T05:59:49;45.05;;;21.80;;
28724;SDS011;43472;48.980;9.646;2023-02-11T06:04:51;40.38;;;22.85;;
28724;SDS011;43472;48.980;9.646;2023-02-11T06:09:53;52.30;;;25.02;;
28724;SDS011;43472;48.980;9.646;2023-02-11T06:14:55;95.00;;;37.70;;
28724;SDS011;43472;48.980;9.646;2023-02-11T06:19:57;95.15;;;40.38;;
28724;SDS011;43472;48.980;9.646;2023-02-11T06:24:58;59.00;;;24.65;;
28724;SDS011;43472;48.980;9.646;2023-02-11T06:30:03;50.83;;;22.48;;
28724;SDS011;43472;48.980;9.646;2023-02-11T06:35:06;58.33;;;28.38;;
28724;SDS011;43472;48.980;9.646;2023-02-11T06:40:12;57.92;;;26.25;;
28724;SDS011;43472;48.980;9.646;2023-02-11T06:45:14;44.78;;;21.48;;
28724;SDS011;43472;48.980;9.646;2023-02-11T06:50:16;48.20;;;21.33;;
28724;SDS011;43472;48.980;9.646;2023-02-11T06:55:17;47.72;;;23.00;;
28724;SDS011;43472;48.980;9.646;2023-02-11T07:00:20;53.00;;;23.10;;
28724;SDS011;43472;48.980;9.646;2023-02-11T07:05:22;44.95;;;20.85;;
28724;SDS011;43472;48.980;9.646;2023-02-11T07:10:24;41.90;;;20.40;;
28724;SDS011;43472;48.980;9.646;2023-02-11T07:15:26;46.70;;;22.98;;
28724;SDS011;43472;48.980;9.646;2023-02-11T07:20:28;44.15;;;23.15;;
28724;SDS011;43472;48.980;9.646;2023-02-11T07:25:30;38.85;;;21.13;;
28724;SDS011;43472;48.980;9.646;2023-02-11T07:30:32;44.08;;;21.45;;
28724;SDS011;43472;48.980;9.646;2023-02-11T07:35:34;41.83;;;21.13;;
28724;SDS011;43472;48.980;9.646;2023-02-11T07:40:36;39.00;;;21.85;;
28724;SDS011;43472;48.980;9.646;2023-02-11T07:45:38;43.03;;;24.88;;
28724;SDS011;43472;48.980;9.646;2023-02-11T07:50:40;42.22;;;22.33;;
28724;SDS011;43472;48.980;9.646;2023-02-11T07:55:42;42.35;;;22.27;;
28724;SDS011;43472;48.980;9.646;2023-02-11T08:00:44;49.08;;;23.33;;
28724;SDS011;43472;48.980;9.646;2023-02-11T08:05:46;38.53;;;21.65;;
28724;SDS011;43472;48.980;9.646;2023-02-11T08:10:48;43.30;;;21.65;;
28724;SDS011;43472;48.980;9.646;2023-02-11T08:15:51;41.13;;;22.02;;
28724;SDS011;43472;48.980;9.646;2023-02-11T08:20:53;49.97;;;24.52;;
28724;SDS011;43472;48.980;9.646;2023-02-11T08:25:55;49.90;;;23.77;;
28724;SDS011;43472;48.980;9.646;2023-02-11T08:31:06;53.05;;;28.45;;
28724;SDS011;43472;48.980;9.646;2023-02-11T08:36:20;54.30;;;27.38;;
28724;SDS011;43472;48.980;9.646;2023-02-11T08:41:24;52.45;;;27.90;;
28724;SDS011;43472;48.980;9.646;2023-02-11T08:46:27;48.78;;;26.48;;
28724;SDS011;43472;48.980;9.646;2023-02-11T08:51:29;49.55;;;25.38;;
28724;SDS011;43472;48.980;9.646;2023-02-11T08:56:31;35.47;;;20.35;;
28724;SDS011;43472;48.980;9.646;2023-02-11T09:01:33;35.75;;;19.60;;
28724;SDS011;43472;48.980;9.646;2023-02-11T09:06:35;45.47;;;24.58;;
28724;SDS011;43472;48.980;9.646;2023-02-11T09:11:38;47.13;;;26.40;;
28724;SDS011;43472;48.980;9.646;2023-02-11T09:16:41;31.15;;;16.83;;
28724;SDS011;43472;48.980;9.646;2023-02-11T09:21:44;66.55;;;30.55;;
28724;SDS011;43472;48.980;9.646;2023-02-11T09:26:46;29.08;;;16.92;;
28724;SDS011;43472;48.980;9.646;2023-02-11T09:31:50;21.90;;;12.18;;
28724;SDS011;43472;48.980;9.646;2023-02-11T09:36:52;18.00;;;9.55;;
28724;SDS011;43472;48.980;9.646;2023-02-11T09:47:25;9.80;;;5.88;;
28724;SDS011;43472;48.980;9.646;2023-02-11T09:57:42;9.35;;;5.72;;
28724;SDS011;43472;48.980;9.646;2023-02-11T10:03:00;9.23;;;5.85;;
28724;SDS011;43472;48.980;9.646;2023-02-11T10:08:15;7.80;;;4.67;;
28724;SDS011;43472;48.980;9.646;2023-02-11T10:13:35;6.28;;;4.47;;
28724;SDS011;43472;48.980;9.646;2023-02-11T10:18:45;7.90;;;5.30;;
28724;SDS011;43472;48.980;9.646;2023-02-11T10:24:12;10.43;;;6.18;;
28724;SDS011;43472;48.980;9.646;2023-02-11T10:34:36;10.65;;;5.72;;
28724;SDS011;43472;48.980;9.646;2023-02-11T10:39:41;11.93;;;7.07;;
28724;SDS011;43472;48.980;9.646;2023-02-11T10:49:59;11.52;;;7.03;;
28724;SDS011;43472;48.980;9.646;2023-02-11T10:55:05;11.38;;;6.82;;
28724;SDS011;43472;48.980;9.646;2023-02-11T11:05:45;15.75;;;7.97;;
28724;SDS011;43472;48.980;9.646;2023-02-11T11:11:03;15.73;;;9.43;;
28724;SDS011;43472;48.980;9.646;2023-02-11T11:26:23;13.93;;;9.90;;
28724;SDS011;43472;48.980;9.646;2023-02-11T11:31:32;16.23;;;10.88;;
28724;SDS011;43472;48.980;9.646;2023-02-11T11:36:45;15.30;;;10.20;;
28724;SDS011;43472;48.980;9.646;2023-02-11T11:41:48;13.15;;;9.52;;
28724;SDS011;43472;48.980;9.646;2023-02-11T11:52:10;15.35;;;10.07;;
28724;SDS011;43472;48.980;9.646;2023-02-11T11:57:26;16.30;;;10.10;;
28724;SDS011;43472;48.980;9.646;2023-02-11T12:29:56;22.48;;;13.23;;
28724;SDS011;43472;48.980;9.646;2023-02-11T12:35:30;16.55;;;10.45;;
28724;SDS011;43472;48.980;9.646;2023-02-11T12:46:30;22.40;;;11.15;;
28724;SDS011;43472;48.980;9.646;2023-02-11T12:52:00;18.83;;;10.87;;
28724;SDS011;43472;48.980;9.646;2023-02-11T12:57:32;17.98;;;10.88;;
28724;SDS011;43472;48.980;9.646;2023-02-11T13:02:48;17.80;;;11.13;;
28724;SDS011;43472;48.980;9.646;2023-02-11T13:13:36;17.58;;;11.90;;
28724;SDS011;43472;48.980;9.646;2023-02-11T13:39:45;17.00;;;10.48;;
28724;SDS011;43472;48.980;9.646;2023-02-11T13:50:47;21.33;;;12.25;;
28724;SDS011;43472;48.980;9.646;2023-02-11T13:55:52;26.17;;;13.13;;
28724;SDS011;43472;48.980;9.646;2023-02-11T14:01:08;32.88;;;15.65;;
28724;SDS011;43472;48.980;9.646;2023-02-11T14:27:14;20.13;;;11.27;;
28724;SDS011;43472;48.980;9.646;2023-02-11T14:37:41;22.25;;;11.55;;
28724;SDS011;43472;48.980;9.646;2023-02-11T14:43:03;17.10;;;11.02;;
28724;SDS011;43472;48.980;9.646;2023-02-11T14:48:30;18.85;;;11.70;;
28724;SDS011;43472;48.980;9.646;2023-02-11T14:53:39;16.80;;;10.48;;
28724;SDS011;43472;48.980;9.646;2023-02-11T14:58:48;21.50;;;11.77;;
28724;SDS011;43472;48.980;9.646;2023-02-11T15:03:52;17.75;;;11.48;;
28724;SDS011;43472;48.980;9.646;2023-02-11T15:08:58;25.35;;;14.73;;
28724;SDS011;43472;48.980;9.646;2023-02-11T15:14:08;24.40;;;13.18;;
28724;SDS011;43472;48.980;9.646;2023-02-11T15:24:34;17.60;;;10.40;;
28724;SDS011;43472;48.980;9.646;2023-02-11T15:29:37;26.27;;;14.38;;
28724;SDS011;43472;48.980;9.646;2023-02-11T15:34:42;20.98;;;11.43;;
28724;SDS011;43472;48.980;9.646;2023-02-11T15:39:45;51.13;;;21.05;;
28724;SDS011;43472;48.980;9.646;2023-02-11T15:44:47;30.55;;;14.82;;
28724;SDS011;43472;48.980;9.646;2023-02-11T15:50:17;21.63;;;12.38;;
28724;SDS011;43472;48.980;9.646;2023-02-11T15:55:21;34.63;;;16.55;;
28724;SDS011;43472;48.980;9.646;2023-02-11T16:00:32;30.52;;;14.82;;
28724;SDS011;43472;48.980;9.646;2023-02-11T16:05:45;24.02;;;13.25;;
28724;SDS011;43472;48.980;9.646;2023-02-11T16:10:54;22.17;;;13.32;;
28724;SDS011;43472;48.980;9.646;2023-02-11T16:16:02;38.47;;;17.60;;
28724;SDS011;43472;48.980;9.646;2023-02-11T16:21:17;23.85;;;13.32;;
28724;SDS011;43472;48.980;9.646;2023-02-11T16:26:26;29.23;;;15.57;;
28724;SDS011;43472;48.980;9.646;2023-02-11T16:31:33;33.28;;;15.77;;
28724;SDS011;43472;48.980;9.646;2023-02-11T16:36:37;20.90;;;12.80;;
28724;SDS011;43472;48.980;9.646;2023-02-11T16:41:39;39.75;;;21.25;;
28724;SDS011;43472;48.980;9.646;2023-02-11T16:46:41;45.28;;;20.90;;
28724;SDS011;43472;48.980;9.646;2023-02-11T16:51:47;29.08;;;13.13;;
28724;SDS011;43472;48.980;9.646;2023-02-11T16:56:51;20.40;;;12.48;;
28724;SDS011;43472;48.980;9.646;2023-02-11T17:01:53;25.83;;;11.85;;
28724;SDS011;43472;48.980;9.646;2023-02-11T17:06:55;26.23;;;14.07;;
28724;SDS011;43472;48.980;9.646;2023-02-11T17:12:02;80.72;;;42.92;;
28724;SDS011;43472;48.980;9.646;2023-02-11T17:17:04;27.83;;;17.15;;
28724;SDS011;43472;48.980;9.646;2023-02-11T17:22:06;35.13;;;19.77;;
28724;SDS011;43472;48.980;9.646;2023-02-11T17:27:09;45.45;;;25.60;;
28724;SDS011;43472;48.980;9.646;2023-02-11T17:32:12;43.90;;;23.27;;
28724;SDS011;43472;48.980;9.646;2023-02-11T17:37:14;31.50;;;16.75;;
28724;SDS011;43472;48.980;9.646;2023-02-11T17:42:16;29.48;;;16.67;;
28724;SDS011;43472;48.980;9.646;2023-02-11T17:47:20;36.05;;;17.27;;
28724;SDS011;43472;48.980;9.646;2023-02-11T17:52:22;33.58;;;17.60;;
28724;SDS011;43472;48.980;9.646;2023-02-11T17:57:25;21.88;;;12.85;;
28724;SDS011;43472;48.980;9.646;2023-02-11T18:02:27;24.60;;;13.45;;
28724;SDS011;43472;48.980;9.646;2023-02-11T18:07:29;25.13;;;14.35;;
28724;SDS011;43472;48.980;9.646;2023-02-11T18:12:31;27.40;;;15.02;;
28724;SDS011;43472;48.980;9.646;2023-02-11T18:17:33;22.23;;;12.95;;
28724;SDS011;43472;48.980;9.646;2023-02-11T18:22:35;24.90;;;14.60;;
28724;SDS011;43472;48.980;9.646;2023-02-11T18:27:40;30.67;;;16.42;;
28724;SDS011;43472;48.980;9.646;2023-02-11T18:32:43;28.42;;;17.40;;
28724;SDS011;43472;48.980;9.646;2023-02-11T18:37:46;29.83;;;15.27;;
28724;SDS011;43472;48.980;9.646;2023-02-11T18:42:48;28.88;;;14.60;;
28724;SDS011;43472;48.980;9.646;2023-02-11T18:47:49;26.48;;;14.63;;
28724;SDS011;43472;48.980;9.646;2023-02-11T18:52:51;24.38;;;14.77;;
28724;SDS011;43472;48.980;9.646;2023-02-11T18:57:53;30.70;;;14.48;;
28724;SDS011;43472;48.980;9.646;2023-02-11T19:02:57;26.48;;;13.48;;
28724;SDS011;43472;48.980;9.646;2023-02-11T19:08:01;26.42;;;15.38;;
28724;SDS011;43472;48.980;9.646;2023-02-11T19:13:03;26.52;;;14.35;;
28724;SDS011;43472;48.980;9.646;2023-02-11T19:18:07;27.90;;;15.63;;
28724;SDS011;43472;48.980;9.646;2023-02-11T19:23:10;26.00;;;15.75;;
28724;SDS011;43472;48.980;9.646;2023-02-11T19:28:12;34.67;;;21.33;;
28724;SDS011;43472;48.980;9.646;2023-02-11T19:33:14;26.20;;;15.70;;
28724;SDS011;43472;48.980;9.646;2023-02-11T19:38:16;28.63;;;15.98;;
28724;SDS011;43472;48.980;9.646;2023-02-11T19:43:23;36.63;;;18.38;;
28724;SDS011;43472;48.980;9.646;2023-02-11T19:48:26;43.00;;;21.75;;
28724;SDS011;43472;48.980;9.646;2023-02-11T19:53:28;46.85;;;21.52;;
28724;SDS011;43472;48.980;9.646;2023-02-11T19:58:30;43.10;;;22.05;;
28724;SDS011;43472;48.980;9.646;2023-02-11T20:03:32;43.15;;;22.10;;
28724;SDS011;43472;48.980;9.646;2023-02-11T20:08:35;51.53;;;25.27;;
28724;SDS011;43472;48.980;9.646;2023-02-11T20:13:37;103.38;;;42.67;;
28724;SDS011;43472;48.980;9.646;2023-02-11T20:18:40;103.60;;;42.50;;
28724;SDS011;43472;48.980;9.646;2023-02-11T20:23:43;74.03;;;37.72;;
28724;SDS011;43472;48.980;9.646;2023-02-11T20:28:47;54.03;;;28.83;;
28724;SDS011;43472;48.980;9.646;2023-02-11T20:33:50;54.80;;;27.33;;
28724;SDS011;43472;48.980;9.646;2023-02-11T20:38:52;51.58;;;28.17;;
28724;SDS011;43472;48.980;9.646;2023-02-11T20:43:56;55.28;;;26.15;;
28724;SDS011;43472;48.980;9.646;2023-02-11T20:48:59;58.25;;;28.05;;
28724;SDS011;43472;48.980;9.646;2023-02-11T20:54:01;35.75;;;18.65;;
28724;SDS011;43472;48.980;9.646;2023-02-11T20:59:04;31.20;;;16.48;;
28724;SDS011;43472;48.980;9.646;2023-02-11T21:04:09;32.45;;;18.35;;
28724;SDS011;43472;48.980;9.646;2023-02-11T21:09:16;34.65;;;17.52;;
28724;SDS011;43472;48.980;9.646;2023-02-11T21:14:24;35.15;;;18.75;;
28724;SDS011;43472;48.980;9.646;2023-02-11T21:19:27;51.63;;;25.65;;
28724;SDS011;43472;48.980;9.646;2023-02-11T21:24:32;48.78;;;24.88;;
28724;SDS011;43472;48.980;9.646;2023-02-11T21:29:34;46.65;;;25.30;;
28724;SDS011;43472;48.980;9.646;2023-02-11T21:34:53;43.85;;;23.35;;
28724;SDS011;43472;48.980;9.646;2023-02-11T21:39:55;37.25;;;19.65;;
28724;SDS011;43472;48.980;9.646;2023-02-11T21:44:57;33.25;;;18.00;;
28724;SDS011;43472;48.980;9.646;2023-02-11T21:49:59;30.77;;;16.38;;
28724;SDS011;43472;48.980;9.646;2023-02-11T21:55:04;31.08;;;16.20;;
28724;SDS011;43472;48.980;9.646;2023-02-11T22:00:07;25.00;;;13.73;;
28724;SDS011;43472;48.980;9.646;2023-02-11T22:05:10;22.48;;;12.95;;
28724;SDS011;43472;48.980;9.646;2023-02-11T22:10:12;30.40;;;16.10;;
28724;SDS011;43472;48.980;9.646;2023-02-11T22:15:15;28.50;;;16.60;;
28724;SDS011;43472;48.980;9.646;2023-02-11T22:20:17;35.35;;;17.40;;
28724;SDS011;43472;48.980;9.646;2023-02-11T22:25:19;33.92;;;16.85;;
28724;SDS011;43472;48.980;9.646;2023-02-11T22:30:22;30.70;;;17.15;;
28724;SDS011;43472;48.980;9.646;2023-02-11T22:35:24;31.80;;;16.83;;
28724;SDS011;43472;48.980;9.646;2023-02-11T22:40:26;31.48;;;16.80;;
28724;SDS011;43472;48.980;9.646;2023-02-11T22:45:28;36.38;;;17.92;;
28724;SDS011;43472;48.980;9.646;2023-02-11T22:50:30;33.83;;;17.83;;
28724;SDS011;43472;48.980;9.646;2023-02-11T22:55:36;33.03;;;18.40;;
28724;SDS011;43472;48.980;9.646;2023-02-11T23:00:39;41.55;;;18.65;;
28724;SDS011;43472;48.980;9.646;2023-02-11T23:05:42;37.92;;;18.23;;
28724;SDS011;43472;48.980;9.646;2023-02-11T23:10:44;37.22;;;18.33;;
28724;SDS011;43472;48.980;9.646;2023-02-11T23:15:47;34.85;;;18.42;;
28724;SDS011;43472;48.980;9.646;2023-02-11T23:20:50;31.95;;;17.08;;
28724;SDS011;43472;48.980;9.646;2023-02-11T23:25:52;31.35;;;16.00;;
28724;SDS011;43472;48.980;9.646;2023-02-11T23:30:54;26.85;;;13.98;;
28724;SDS011;43472;48.980;9.646;2023-02-11T23:35:57;23.35;;;14.18;;
28724;SDS011;43472;48.980;9.646;2023-02-11T23:41:01;31.75;;;16.73;;
28724;SDS011;43472;48.980;9.646;2023-02-11T23:46:03;32.33;;;18.30;;
28724;SDS011;43472;48.980;9.646;2023-02-11T23:51:06;34.30;;;17.83;;
28724;SDS011;43472;48.980;9.646;2023-02-11T23:56:13;34.47;;;18.40;;
